Historyczne dane pomiarowe

Dodano dane terminowe – wersja testowa.

Dane z okresu 1951-2019

Wersja bazy: 1.34 [2019-03-16, lista zmian], aktualizacja planowana na 2019-04-15

Dane meteo z obszaru Polski uzyskane na podstawie danych udostępnionych przez Instytut Meteorologii i Gospodarki Wodnej – Państwowy Instytut Badawczy.

 

Wybierz Datę:    

       

TemperaturaWilgotnośćWiatrCiśnienieOpadyŚniegCzas trwania zjawisk
 Stacja t tx tn tng RH VA  wxwx mslp ppp RRR   cm mm wxwxwxwxwxwxwx
1952-04-17 4.0 11.9 0.5- 78.0- 0.0 1.0---- 0.0------------
1952-04-18 5.4 8.0 -1.5- 85.5- 0.0 3.0---- 0.0------------
1952-04-19 7.0 10.5 -1.0- 85.0- 1.0 2.3---- 0.0------------
1952-04-20 8.9 15.9 -2.5- 82.0- 1.0 1.3---- 0.8------------
1952-04-21 7.8 10.9 6.0- 91.0- 6.3 1.0---- 2.1------------
1952-04-22 12.4 21.5 6.0- 79.0- 6.3 2.3---- 0.0------------
1952-04-23 9.9 13.3 6.0- 85.8- 7.3 2.0---- 0.8------------
1952-04-24 6.2 11.2 4.0- 92.0- 5.3 3.7---- 8.1------------
1952-04-25 7.0 9.7 3.5- 92.5- 7.0 0.7---- 0.3------------
1952-04-26 5.3 7.8 1.2- 94.3- 5.0 1.3---- 0.2------------
1952-04-27 5.4 6.8 2.6- 97.3- 8.0 2.3---- 0.0------------
1952-04-28 6.0 8.3 4.0- 95.0- 5.0 1.3---- 0.0------------
1952-04-29 4.7 8.7 2.4- 95.8- 7.3 1.0---- 0.0------------
1952-04-30 9.2 14.3 0.5- 87.3- 1.7 3.0---- 0.0------------
1952-05-01 7.4 14.8 4.8- 88.0- 3.3 4.0---- 0.0------------
1952-05-02 5.2 8.3 4.0- 90.8- 5.0 3.0---- 0.0------------
1952-05-03 10.2 16.3 2.6- 75.8- 1.0 1.7---- 0.0------------
1952-05-04 18.1 24.5 4.5- 62.8- 1.7 4.7---- 0.0------------
1952-05-05 10.7 19.5 7.2- 95.0- 8.0 1.3---- 9.8------------
1952-05-06 11.6 15.7 8.5- 90.8- 1.7 1.3---- 0.0------------
1952-05-07 11.9 19.4 7.0- 84.5- 1.7 4.3---- 0.0------------
1952-05-08 9.9 14.8 5.5- 86.0- 3.0 4.7---- 0.0------------
1952-05-09 13.0 20.5 6.5- 62.5- 0.3 3.3---- 0.0------------
1952-05-10 14.3 20.5 6.5- 79.0- 6.3 1.7---- 0.0------------
1952-05-11 6.7 14.0 4.4- 85.8- 5.3 2.3---- 0.0------------
1952-05-12 10.5 13.0 -1.0- 79.0- 1.7 1.7---- 4.5------------
1952-05-13 7.1 10.2 6.5- 97.0- 8.0 2.3---- 5.5------------
1952-05-14 8.7 9.7 6.0- 89.8- 5.3 5.3---- 6.4------------
1952-05-15 5.3 9.9 2.5- 90.8- 6.0 4.0---- 1.1------------
1952-05-16 4.0 6.6 -2.0- 91.3- 5.7 3.0---- 3.4------------
77.1 ms

 

Źródłem pochodzenia danych jest Instytut Meteorologii i Gospodarki Wodnej – Państwowy Instytut Badawczy. Dane Instytutu Meteorologii i Gospodarki Wodnej – Państwowego Instytutu Badawczego zostały przetworzone.

Dane źródłowe można odnaleźć na stronie https://dane.imgw.pl